Time;durP1;ratioP1;P1;durP2;ratioP2;P2;SDS_P1;SDS_P2;PMS_P1;PMS_P2;Temp;Humidity;BMP_temperature;BMP_pressure;BME280_temperature;BME280_humidity;BME280_pressure;Samples;Min_cycle;Max_cycle;Signal;HPM_P1;HPM_P2
2021/12/01 00:00:23;;;;;;;2.10;0.90;;;9.40;99.90;;;;;;5033435;28;20431;-76
2021/12/01 00:02:53;;;;;;;3.83;1.00;;;9.40;99.90;;;;;;5033454;28;20832;-76
2021/12/01 00:05:23;;;;;;;2.40;0.87;;;9.30;99.90;;;;;;5033483;28;20470;-76
2021/12/01 00:07:50;;;;;;;3.13;1.23;;;9.40;99.90;;;;;;5033428;28;20992;-76
2021/12/01 00:10:17;;;;;;;2.20;0.83;;;9.40;99.90;;;;;;5033161;28;20420;-76
2021/12/01 00:12:44;;;;;;;2.30;1.00;;;9.40;99.90;;;;;;5033133;28;20450;-76
2021/12/01 00:15:09;;;;;;;4.30;1.00;;;9.50;99.90;;;;;;5033343;28;20458;-75
2021/12/01 00:17:35;;;;;;;4.43;1.10;;;9.50;99.90;;;;;;5033326;28;20460;-76
2021/12/01 00:20:02;;;;;;;7.03;1.00;;;9.50;99.90;;;;;;5033043;28;20427;-77
2021/12/01 00:22:27;;;;;;;2.80;1.00;;;9.50;99.90;;;;;;5032836;28;20247;-76
2021/12/01 00:24:54;;;;;;;3.10;1.23;;;9.50;99.90;;;;;;5033043;28;20462;-77
2021/12/01 00:27:20;;;;;;;2.70;1.20;;;9.50;99.90;;;;;;5033114;28;20196;-76
2021/12/01 00:29:48;;;;;;;2.80;1.00;;;9.50;99.90;;;;;;5032756;28;20423;-76
2021/12/01 00:32:14;;;;;;;2.70;1.30;;;9.50;99.90;;;;;;5033021;28;20457;-76
2021/12/01 00:34:39;;;;;;;2.43;0.90;;;9.50;99.90;;;;;;5032915;28;20427;-76
2021/12/01 00:37:05;;;;;;;3.30;1.77;;;9.50;99.90;;;;;;5032836;28;20586;-77
2021/12/01 00:39:31;;;;;;;2.50;1.10;;;9.50;99.90;;;;;;5032662;28;20203;-76
2021/12/01 00:41:58;;;;;;;3.43;1.00;;;9.50;99.90;;;;;;5032800;28;20247;-76
2021/12/01 00:44:24;;;;;;;3.93;1.27;;;9.50;99.90;;;;;;5032678;28;20524;-75
2021/12/01 00:49:19;;;;;;;2.30;0.90;;;9.60;99.90;;;;;;5033781;28;20412;-76
2021/12/01 00:51:45;;;;;;;2.60;1.20;;;9.60;99.90;;;;;;5032343;28;20892;-76
2021/12/01 00:54:11;;;;;;;2.60;1.40;;;9.60;99.90;;;;;;5032627;28;20565;-76
2021/12/01 00:56:37;;;;;;;2.63;1.27;;;9.60;99.90;;;;;;5032533;28;20817;-76
2021/12/01 00:59:03;;;;;;;3.10;1.27;;;9.60;99.90;;;;;;5032397;28;20429;-77
2021/12/01 01:01:29;;;;;;;2.90;1.43;;;9.60;99.90;;;;;;5031851;28;20443;-76
2021/12/01 01:03:54;;;;;;;4.87;1.60;;;9.60;99.90;;;;;;5032456;28;20565;-77
2021/12/01 01:06:20;;;;;;;4.20;1.60;;;9.60;99.90;;;;;;5032275;28;20611;-77
2021/12/01 01:08:46;;;;;;;2.77;1.20;;;9.60;99.90;;;;;;5032476;28;20177;-77
2021/12/01 01:16:45;;;;;;;2.30;1.00;;;9.70;99.90;;;;;;5033698;28;20466;-76
2021/12/01 01:19:14;;;;;;;2.40;1.20;;;9.70;99.90;;;;;;5031925;28;20418;-76
2021/12/01 01:21:44;;;;;;;2.90;1.50;;;9.70;99.90;;;;;;5031870;28;20954;-76
2021/12/01 01:24:10;;;;;;;3.50;1.20;;;9.70;99.90;;;;;;5032008;28;20536;-76
2021/12/01 01:26:37;;;;;;;3.40;1.20;;;9.70;99.90;;;;;;5032051;28;20518;-76
2021/12/01 01:29:04;;;;;;;2.40;1.10;;;9.70;99.90;;;;;;5032019;28;20942;-78
2021/12/01 01:31:32;;;;;;;2.30;0.97;;;9.70;99.90;;;;;;5031749;28;20442;-79
2021/12/01 01:33:58;;;;;;;2.60;1.10;;;9.70;99.90;;;;;;5031938;28;20430;-78
2021/12/01 01:36:25;;;;;;;2.50;1.50;;;9.70;99.90;;;;;;5031795;28;20494;-78
2021/12/01 01:38:51;;;;;;;3.53;1.17;;;9.70;99.90;;;;;;5031775;28;20419;-78
2021/12/01 01:41:18;;;;;;;2.87;1.37;;;9.70;99.90;;;;;;5031489;28;20446;-79
2021/12/01 01:43:46;;;;;;;2.47;1.20;;;9.60;99.90;;;;;;5031436;28;20478;-77
2021/12/01 01:46:13;;;;;;;2.40;1.23;;;9.60;99.90;;;;;;5031671;28;20423;-77
2021/12/01 01:48:47;;;;;;;3.07;1.30;;;9.60;99.90;;;;;;5031564;28;20488;-78
2021/12/01 01:51:14;;;;;;;2.90;1.60;;;9.70;99.90;;;;;;5031300;28;20447;-78
2021/12/01 01:53:39;;;;;;;2.60;1.13;;;9.70;99.90;;;;;;5031484;28;20808;-78
2021/12/01 01:56:06;;;;;;;3.40;1.60;;;9.70;99.90;;;;;;5031569;28;20434;-78
2021/12/01 01:58:33;;;;;;;3.20;1.43;;;9.60;99.90;;;;;;5031377;28;20429;-77
2021/12/01 02:01:09;;;;;;;4.07;2.00;;;9.70;99.90;;;;;;5031135;28;20423;-78
2021/12/01 02:03:38;;;;;;;3.73;1.70;;;9.60;99.90;;;;;;5031221;28;20530;-78
2021/12/01 02:06:06;;;;;;;3.03;1.40;;;9.60;99.90;;;;;;5031280;28;20426;-77
2021/12/01 02:08:34;;;;;;;2.60;1.40;;;9.60;99.90;;;;;;5031116;28;20420;-78
2021/12/01 02:11:05;;;;;;;3.10;1.77;;;9.60;99.90;;;;;;5030910;28;20504;-76
2021/12/01 02:13:33;;;;;;;2.83;1.47;;;9.60;99.90;;;;;;5030229;28;20423;-77
2021/12/01 02:16:00;;;;;;;3.13;1.80;;;9.60;99.90;;;;;;5031179;28;20423;-76
2021/12/01 02:18:27;;;;;;;3.20;2.00;;;9.60;99.90;;;;;;5031014;28;20449;-77
2021/12/01 02:21:07;;;;;;;3.33;1.93;;;9.60;99.90;;;;;;5030642;28;20441;-77
2021/12/01 02:23:37;;;;;;;3.70;2.50;;;9.60;99.90;;;;;;5030930;28;20473;-77
2021/12/01 02:26:04;;;;;;;2.83;1.50;;;9.60;99.90;;;;;;5031047;28;20909;-76
2021/12/01 02:28:31;;;;;;;3.13;1.50;;;9.60;99.90;;;;;;5030832;28;20423;-76
2021/12/01 02:30:58;;;;;;;3.13;2.07;;;9.60;99.90;;;;;;5030896;28;20980;-77
2021/12/01 02:33:24;;;;;;;4.40;1.97;;;9.60;99.90;;;;;;5030802;28;20415;-77
2021/12/01 02:35:50;;;;;;;3.97;1.90;;;9.60;99.90;;;;;;5030660;28;20426;-76
2021/12/01 02:38:17;;;;;;;3.87;1.97;;;9.60;99.90;;;;;;5030843;28;20776;-76
2021/12/01 02:40:43;;;;;;;3.30;1.80;;;9.60;99.90;;;;;;5030424;28;20510;-76
2021/12/01 02:43:09;;;;;;;3.60;1.93;;;9.60;99.90;;;;;;5030898;28;20430;-77
2021/12/01 02:45:35;;;;;;;4.30;1.97;;;9.60;99.90;;;;;;5030628;28;20462;-77
2021/12/01 02:48:01;;;;;;;3.40;2.20;;;9.60;99.90;;;;;;5030614;28;20263;-77
2021/12/01 02:50:26;;;;;;;3.10;1.80;;;9.60;99.90;;;;;;5030311;28;20527;-77
2021/12/01 02:52:52;;;;;;;2.90;1.70;;;9.60;99.90;;;;;;5030540;28;20211;-77
2021/12/01 02:55:20;;;;;;;2.90;1.90;;;9.60;99.90;;;;;;5030616;28;20656;-76
2021/12/01 02:57:51;;;;;;;3.30;2.10;;;9.60;99.90;;;;;;5030591;28;20181;-77
2021/12/01 03:00:19;;;;;;;3.40;2.20;;;9.60;99.90;;;;;;5030240;28;20438;-76
2021/12/01 03:02:46;;;;;;;5.47;2.37;;;9.60;99.90;;;;;;5030349;28;20485;-76
2021/12/01 03:05:12;;;;;;;3.40;2.37;;;9.60;99.90;;;;;;5030337;28;20616;-76
2021/12/01 03:07:38;;;;;;;3.13;1.67;;;9.60;99.90;;;;;;5030449;28;20505;-77
2021/12/01 03:10:05;;;;;;;3.40;2.00;;;9.70;99.90;;;;;;5030149;28;20797;-76
2021/12/01 03:12:34;;;;;;;3.77;2.03;;;9.60;99.90;;;;;;5030302;28;20443;-77
2021/12/01 03:15:00;;;;;;;3.87;2.37;;;9.60;99.90;;;;;;5030642;28;20427;-77
2021/12/01 03:17:30;;;;;;;3.40;2.33;;;9.60;99.90;;;;;;5030214;28;20422;-77
2021/12/01 03:19:57;;;;;;;2.63;1.60;;;9.60;99.90;;;;;;5030224;28;20215;-77
2021/12/01 03:22:23;;;;;;;3.43;1.70;;;9.60;99.90;;;;;;5030022;28;20980;-76
2021/12/01 03:24:49;;;;;;;3.50;2.17;;;9.60;99.90;;;;;;5030728;28;20498;-77
2021/12/01 03:27:15;;;;;;;3.20;1.87;;;9.60;99.90;;;;;;5034200;28;20465;-77
2021/12/01 03:29:41;;;;;;;3.37;2.03;;;9.70;99.90;;;;;;5034000;28;20454;-77
2021/12/01 03:32:07;;;;;;;6.20;2.20;;;9.70;99.90;;;;;;5034061;28;20206;-77
2021/12/01 03:34:37;;;;;;;3.00;1.80;;;9.70;99.90;;;;;;5034033;28;20273;-76
2021/12/01 03:37:03;;;;;;;3.63;1.80;;;9.70;99.90;;;;;;5033960;28;20517;-77
2021/12/01 03:39:29;;;;;;;3.10;1.77;;;9.70;99.90;;;;;;5033810;28;20423;-77
2021/12/01 03:41:55;;;;;;;3.80;2.07;;;9.80;99.90;;;;;;5033874;28;20462;-77
2021/12/01 03:44:21;;;;;;;3.40;1.83;;;9.80;99.90;;;;;;5033895;28;20470;-77
2021/12/01 03:46:47;;;;;;;4.33;1.83;;;9.80;99.90;;;;;;5033847;28;20427;-77
2021/12/01 03:49:16;;;;;;;3.80;2.20;;;9.90;99.90;;;;;;5033637;28;20419;-77
2021/12/01 03:51:42;;;;;;;3.27;1.93;;;9.80;99.90;;;;;;5033691;28;20443;-77
2021/12/01 03:54:08;;;;;;;3.40;2.23;;;9.80;99.90;;;;;;5033664;28;20553;-76
2021/12/01 03:56:34;;;;;;;3.63;2.13;;;9.70;99.90;;;;;;5033871;28;20215;-77
2021/12/01 03:59:02;;;;;;;3.37;2.10;;;9.70;99.90;;;;;;5033520;28;20431;-77
2021/12/01 04:01:28;;;;;;;4.80;2.70;;;9.70;99.90;;;;;;5033454;28;20451;-77
2021/12/01 04:03:54;;;;;;;3.77;2.60;;;9.60;99.90;;;;;;5033415;28;20473;-77
2021/12/01 04:06:20;;;;;;;4.10;2.60;;;9.60;99.90;;;;;;5033612;28;20192;-77
2021/12/01 04:08:46;;;;;;;6.60;2.53;;;9.60;99.90;;;;;;5033401;28;20181;-77
2021/12/01 04:11:11;;;;;;;4.43;2.70;;;9.60;99.90;;;;;;5033247;28;20515;-77
2021/12/01 04:13:37;;;;;;;4.50;3.07;;;9.50;99.90;;;;;;5033255;28;20426;-77
2021/12/01 04:16:03;;;;;;;5.20;2.63;;;9.50;99.90;;;;;;5033340;28;20184;-77
2021/12/01 04:18:29;;;;;;;4.33;2.70;;;9.50;99.90;;;;;;5033232;28;20307;-76
2021/12/01 04:20:55;;;;;;;4.57;2.60;;;9.50;99.90;;;;;;5032942;28;20485;-76
2021/12/01 04:23:20;;;;;;;4.13;2.57;;;9.40;99.90;;;;;;5033261;28;20188;-75
2021/12/01 04:25:46;;;;;;;5.03;3.73;;;9.40;99.90;;;;;;5033200;28;20182;-76
2021/12/01 04:28:12;;;;;;;4.27;2.53;;;9.40;99.90;;;;;;5033106;28;20188;-77
2021/12/01 04:30:38;;;;;;;5.53;2.77;;;9.40;99.90;;;;;;5032812;28;20520;-77
2021/12/01 04:33:04;;;;;;;4.40;2.53;;;9.40;99.90;;;;;;5033083;28;20201;-77
2021/12/01 04:35:30;;;;;;;6.13;2.97;;;9.40;99.90;;;;;;5032918;28;20184;-77
2021/12/01 04:37:56;;;;;;;4.30;2.80;;;9.40;99.90;;;;;;5032076;28;20423;-76
2021/12/01 04:40:22;;;;;;;5.17;2.70;;;9.40;99.90;;;;;;5032673;28;20426;-77
2021/12/01 04:42:48;;;;;;;4.73;3.20;;;9.40;99.90;;;;;;5032745;28;20447;-75
2021/12/01 04:45:16;;;;;;;5.17;2.80;;;9.40;99.90;;;;;;5032686;28;20891;-77
2021/12/01 04:47:54;;;;;;;4.60;3.40;;;9.40;99.90;;;;;;5032871;28;20806;-77
2021/12/01 04:50:22;;;;;;;4.90;2.53;;;9.40;99.90;;;;;;5032487;28;20434;-77
2021/12/01 04:52:48;;;;;;;3.87;2.90;;;9.40;99.90;;;;;;5032617;28;20461;-75
2021/12/01 04:55:14;;;;;;;5.23;2.50;;;9.40;99.90;;;;;;5032611;28;20438;-77
2021/12/01 04:57:43;;;;;;;5.33;2.70;;;9.40;99.90;;;;;;5032586;28;20438;-76
2021/12/01 05:00:12;;;;;;;4.20;2.57;;;9.40;99.90;;;;;;5032294;28;20769;-76
2021/12/01 05:02:38;;;;;;;4.33;2.80;;;9.40;99.90;;;;;;5032347;28;20531;-76
2021/12/01 05:05:04;;;;;;;4.10;2.23;;;9.30;99.90;;;;;;5032443;28;20554;-77
2021/12/01 05:07:30;;;;;;;4.27;2.70;;;9.30;99.90;;;;;;5033570;28;20172;-75
2021/12/01 05:09:56;;;;;;;4.40;2.10;;;9.30;99.90;;;;;;5032075;28;20925;-77
2021/12/01 05:12:23;;;;;;;4.37;2.53;;;9.30;99.90;;;;;;5032127;28;20454;-76
2021/12/01 05:14:49;;;;;;;6.40;2.70;;;9.30;99.90;;;;;;5032261;28;20419;-77
2021/12/01 05:17:14;;;;;;;4.60;2.17;;;9.30;99.90;;;;;;5033405;28;20937;-77
2021/12/01 05:19:40;;;;;;;4.53;2.70;;;9.20;99.90;;;;;;5031848;28;20434;-76
2021/12/01 05:22:06;;;;;;;4.40;2.23;;;9.20;99.90;;;;;;5031838;28;20597;-76
2021/12/01 05:24:33;;;;;;;4.00;2.57;;;9.20;99.90;;;;;;5031918;28;20478;-77
2021/12/01 05:26:59;;;;;;;5.73;2.70;;;9.20;99.90;;;;;;5031997;28;20291;-76
2021/12/01 05:29:25;;;;;;;4.30;1.90;;;9.20;99.90;;;;;;5031781;28;20411;-77
2021/12/01 05:31:52;;;;;;;3.43;1.80;;;9.20;99.90;;;;;;5031872;28;20442;-76
2021/12/01 05:34:18;;;;;;;3.50;1.80;;;9.20;99.90;;;;;;5031816;28;20540;-77
2021/12/01 05:36:44;;;;;;;3.50;1.80;;;9.20;99.90;;;;;;5031943;28;20419;-77
2021/12/01 05:39:10;;;;;;;2.73;1.50;;;9.20;99.90;;;;;;5031425;28;20989;-77
2021/12/01 05:41:36;;;;;;;2.77;1.50;;;9.20;99.90;;;;;;5032037;28;20221;-77
2021/12/01 05:44:02;;;;;;;3.10;1.60;;;9.10;99.90;;;;;;5031622;28;20303;-77
2021/12/01 05:46:28;;;;;;;3.10;1.83;;;9.00;99.90;;;;;;5031683;28;20514;-77
2021/12/01 05:48:54;;;;;;;2.60;1.50;;;8.90;99.90;;;;;;5025824;28;20522;-76
2021/12/01 05:51:21;;;;;;;4.00;1.80;;;8.80;99.90;;;;;;5031230;28;20246;-77
2021/12/01 05:53:48;;;;;;;2.80;1.60;;;8.70;99.90;;;;;;5031338;28;20431;-77
2021/12/01 05:56:15;;;;;;;3.03;1.57;;;8.60;99.90;;;;;;5031377;28;20423;-77
2021/12/01 05:58:41;;;;;;;3.27;1.70;;;8.60;99.90;;;;;;5031219;28;20423;-77
2021/12/01 06:01:07;;;;;;;2.60;1.57;;;8.50;99.90;;;;;;5031056;28;20477;-76
2021/12/01 06:03:33;;;;;;;3.40;2.00;;;8.50;99.90;;;;;;5031214;28;20454;-77
2021/12/01 06:05:59;;;;;;;3.17;1.73;;;8.50;99.90;;;;;;5031238;28;20433;-77
2021/12/01 06:08:25;;;;;;;3.00;1.67;;;8.50;99.90;;;;;;5031189;28;20506;-76
2021/12/01 06:10:51;;;;;;;3.37;1.70;;;8.50;99.90;;;;;;5030798;28;20870;-77
2021/12/01 06:13:20;;;;;;;4.23;1.90;;;8.50;99.90;;;;;;5031165;28;20192;-77
2021/12/01 06:15:49;;;;;;;4.03;1.90;;;8.50;99.90;;;;;;5030922;28;20485;-77
2021/12/01 06:18:15;;;;;;;5.07;2.40;;;8.50;99.90;;;;;;5031115;28;20423;-76
2021/12/01 06:20:41;;;;;;;4.33;2.03;;;8.60;99.90;;;;;;5030602;28;20450;-76
2021/12/01 06:23:07;;;;;;;3.77;1.63;;;8.60;99.90;;;;;;5030931;28;20435;-77
2021/12/01 06:25:32;;;;;;;3.33;1.83;;;8.60;99.90;;;;;;5030872;28;20473;-76
2021/12/01 06:27:58;;;;;;;3.30;1.60;;;8.70;99.90;;;;;;5030960;28;20474;-75
2021/12/01 06:30:31;;;;;;;2.70;1.60;;;8.70;99.90;;;;;;5030617;28;20195;-76
2021/12/01 06:32:57;;;;;;;3.10;1.70;;;8.70;99.90;;;;;;5030812;28;20534;-76
2021/12/01 06:35:23;;;;;;;2.63;1.60;;;8.80;99.90;;;;;;5030671;28;20776;-77
2021/12/01 06:37:50;;;;;;;2.80;1.30;;;8.80;99.90;;;;;;5027406;28;20539;-77
2021/12/01 06:40:17;;;;;;;3.07;1.50;;;8.80;99.90;;;;;;5030470;28;20427;-76
2021/12/01 06:42:43;;;;;;;3.00;1.60;;;8.80;99.90;;;;;;5030411;28;20451;-76
2021/12/01 06:45:11;;;;;;;3.13;1.30;;;8.80;99.90;;;;;;5030650;28;20477;-76
2021/12/01 06:47:39;;;;;;;3.03;1.80;;;8.80;99.90;;;;;;5030614;28;20480;-76
2021/12/01 06:50:06;;;;;;;3.13;1.50;;;8.90;99.90;;;;;;5030355;28;20458;-76
2021/12/01 06:52:33;;;;;;;2.57;1.17;;;9.00;99.90;;;;;;5030423;28;20443;-77
2021/12/01 06:55:00;;;;;;;3.53;1.50;;;9.00;99.90;;;;;;5030613;28;20862;-76
2021/12/01 06:57:27;;;;;;;2.90;1.50;;;9.00;99.90;;;;;;5030424;28;20518;-76
2021/12/01 06:59:52;;;;;;;2.57;1.40;;;9.00;99.90;;;;;;5029827;28;20431;-77
2021/12/01 07:02:19;;;;;;;3.33;1.30;;;9.10;99.90;;;;;;5030354;28;20950;-76
2021/12/01 07:04:45;;;;;;;2.50;1.27;;;9.10;99.90;;;;;;5030397;28;20610;-76
2021/12/01 07:07:11;;;;;;;4.63;1.30;;;9.10;99.90;;;;;;5030419;28;20419;-76
2021/12/01 07:09:37;;;;;;;2.50;1.33;;;9.20;99.90;;;;;;5030252;28;20245;-76
2021/12/01 07:12:03;;;;;;;2.73;1.23;;;9.20;99.90;;;;;;5030416;28;20784;-76
2021/12/01 07:14:29;;;;;;;2.20;1.00;;;9.20;99.90;;;;;;5030317;28;20180;-76
2021/12/01 07:16:55;;;;;;;2.20;0.90;;;9.30;99.90;;;;;;5030363;28;20800;-76
2021/12/01 07:19:21;;;;;;;2.40;1.10;;;9.30;99.90;;;;;;5030366;28;20191;-76
2021/12/01 07:21:47;;;;;;;2.57;1.20;;;9.40;99.90;;;;;;5033694;28;20310;-77
2021/12/01 07:24:15;;;;;;;2.80;1.10;;;9.40;99.90;;;;;;5030576;28;20462;-77
2021/12/01 07:26:42;;;;;;;2.20;0.93;;;9.40;99.90;;;;;;5030392;28;20413;-77
2021/12/01 07:29:08;;;;;;;2.30;0.97;;;9.40;99.90;;;;;;5030687;28;20872;-76
2021/12/01 07:31:34;;;;;;;2.20;0.90;;;9.40;99.90;;;;;;5031567;28;20466;-76
2021/12/01 07:34:00;;;;;;;2.63;1.00;;;9.50;99.90;;;;;;5030984;28;20510;-76
2021/12/01 07:36:26;;;;;;;2.40;0.93;;;9.50;99.90;;;;;;5030802;28;20864;-77
2021/12/01 07:38:53;;;;;;;2.37;1.00;;;9.50;99.90;;;;;;5030914;28;20466;-77
2021/12/01 07:41:20;;;;;;;2.20;0.80;;;9.60;99.90;;;;;;5032077;28;20216;-77
2021/12/01 07:43:46;;;;;;;2.07;0.83;;;9.60;99.90;;;;;;5031323;28;20463;-78
2021/12/01 07:46:11;;;;;;;2.40;1.00;;;9.60;99.90;;;;;;5033101;28;20458;-77
2021/12/01 07:48:38;;;;;;;2.20;0.90;;;9.60;99.90;;;;;;5030240;28;20183;-77
2021/12/01 07:51:05;;;;;;;2.10;0.90;;;9.70;99.90;;;;;;5031732;28;20609;-78
2021/12/01 07:53:30;;;;;;;2.00;0.80;;;9.70;99.90;;;;;;5034017;28;20415;-78
2021/12/01 07:55:56;;;;;;;4.63;0.90;;;9.70;99.90;;;;;;5033718;28;20411;-78
2021/12/01 07:58:22;;;;;;;2.10;0.90;;;9.70;99.90;;;;;;5031607;28;20427;-77
2021/12/01 08:00:48;;;;;;;2.10;0.80;;;9.70;99.90;;;;;;5031167;28;20183;-77
2021/12/01 08:03:14;;;;;;;3.10;1.00;;;9.70;99.90;;;;;;5032214;28;20187;-77
2021/12/01 08:05:40;;;;;;;2.00;0.80;;;9.70;99.90;;;;;;5031938;28;20841;-77
2021/12/01 08:08:06;;;;;;;2.00;0.70;;;9.70;99.90;;;;;;5032087;28;20183;-77
2021/12/01 08:10:32;;;;;;;2.00;0.70;;;9.70;99.90;;;;;;5032066;28;20446;-77
2021/12/01 08:13:00;;;;;;;2.10;0.80;;;9.70;99.90;;;;;;5033355;28;20467;-77
2021/12/01 08:15:27;;;;;;;2.17;0.77;;;9.70;99.90;;;;;;5034804;28;20445;-77
2021/12/01 08:17:53;;;;;;;2.00;0.80;;;9.80;99.90;;;;;;5035462;28;20926;-77
2021/12/01 08:20:20;;;;;;;1.93;0.70;;;9.80;99.90;;;;;;5034871;28;20427;-77
2021/12/01 08:22:46;;;;;;;2.60;0.90;;;9.80;99.90;;;;;;5034560;28;20450;-78
2021/12/01 08:25:13;;;;;;;2.20;0.80;;;9.80;99.90;;;;;;5034364;28;21051;-77
2021/12/01 08:27:39;;;;;;;2.30;0.90;;;9.80;99.90;;;;;;5034270;28;20172;-77
2021/12/01 08:30:09;;;;;;;2.20;1.00;;;9.80;99.90;;;;;;5034463;28;20443;-77
2021/12/01 08:32:35;;;;;;;2.10;0.97;;;9.80;99.90;;;;;;5034209;28;20522;-78
2021/12/01 08:35:01;;;;;;;2.53;1.00;;;9.80;99.90;;;;;;5034210;28;20430;-77
2021/12/01 08:37:27;;;;;;;2.10;0.80;;;9.90;99.90;;;;;;5034249;28;20814;-77
2021/12/01 08:39:52;;;;;;;2.40;0.90;;;9.90;99.90;;;;;;5034042;28;20671;-76
2021/12/01 08:42:21;;;;;;;2.00;0.80;;;9.90;99.90;;;;;;5034096;28;20443;-77
2021/12/01 08:44:48;;;;;;;2.20;0.90;;;9.90;99.90;;;;;;5033812;28;20297;-76
2021/12/01 08:47:20;;;;;;;2.00;0.80;;;10.00;99.90;;;;;;5033969;28;20419;-77
2021/12/01 08:49:47;;;;;;;2.37;0.90;;;10.00;99.90;;;;;;5034549;28;20558;-76
2021/12/01 08:52:13;;;;;;;2.30;0.80;;;10.00;99.90;;;;;;5033817;28;20442;-77
2021/12/01 08:54:39;;;;;;;1.97;0.67;;;10.00;99.90;;;;;;5034389;28;20429;-77
2021/12/01 08:57:06;;;;;;;2.07;0.77;;;9.90;99.90;;;;;;5033295;28;20455;-77
2021/12/01 08:59:32;;;;;;;2.27;0.87;;;9.70;99.90;;;;;;5032831;28;20514;-75
2021/12/01 09:02:00;;;;;;;2.43;0.97;;;9.60;99.90;;;;;;5034043;28;20455;-77
2021/12/01 09:04:27;;;;;;;2.33;0.80;;;9.50;99.90;;;;;;5032371;28;20883;-77
2021/12/01 09:06:53;;;;;;;2.20;0.83;;;9.40;99.90;;;;;;5029603;28;20446;-76
2021/12/01 09:09:19;;;;;;;2.30;0.80;;;9.40;99.90;;;;;;5026524;28;20435;-76
2021/12/01 09:11:51;;;;;;;2.10;0.90;;;9.30;99.90;;;;;;5031830;28;20443;-76
2021/12/01 09:14:18;;;;;;;2.10;0.80;;;9.20;99.90;;;;;;5031989;28;20775;-75
2021/12/01 09:16:46;;;;;;;2.30;0.93;;;9.10;99.90;;;;;;5031554;28;20423;-76
2021/12/01 09:19:12;;;;;;;2.00;0.70;;;9.00;99.90;;;;;;5031673;28;20506;-76
2021/12/01 09:21:38;;;;;;;2.10;0.70;;;9.00;99.90;;;;;;5031614;28;20459;-76
2021/12/01 09:24:04;;;;;;;2.20;0.80;;;9.00;99.90;;;;;;5030988;28;20471;-76
2021/12/01 09:26:31;;;;;;;2.33;1.00;;;9.00;99.90;;;;;;5031517;28;20984;-76
2021/12/01 09:28:57;;;;;;;2.10;0.80;;;9.00;99.90;;;;;;5031351;28;20467;-77
2021/12/01 09:31:22;;;;;;;3.03;0.90;;;9.00;99.90;;;;;;5030519;28;20203;-76
2021/12/01 09:33:49;;;;;;;2.00;1.00;;;9.00;99.90;;;;;;5031441;28;20887;-76
2021/12/01 09:36:16;;;;;;;2.23;0.90;;;9.00;99.90;;;;;;5032002;28;20675;-77
2021/12/01 09:38:43;;;;;;;2.00;0.70;;;9.00;99.90;;;;;;5031338;28;20434;-76
2021/12/01 09:41:10;;;;;;;2.00;0.70;;;9.00;99.90;;;;;;5031019;28;20462;-77
2021/12/01 09:43:37;;;;;;;2.10;0.70;;;9.00;99.90;;;;;;5031383;28;20423;-76
2021/12/01 09:46:05;;;;;;;2.40;0.90;;;9.00;99.90;;;;;;5031156;28;20438;-76
2021/12/01 09:48:33;;;;;;;2.20;0.70;;;9.10;99.90;;;;;;5031473;28;20800;-77
2021/12/01 09:50:59;;;;;;;2.00;0.70;;;9.10;99.90;;;;;;5030862;28;20974;-76
2021/12/01 09:53:25;;;;;;;2.50;1.00;;;9.10;99.90;;;;;;5030619;28;20417;-76
2021/12/01 09:55:51;;;;;;;2.10;0.80;;;9.20;99.90;;;;;;5031027;28;20468;-76
2021/12/01 09:58:20;;;;;;;2.63;0.80;;;9.30;99.90;;;;;;5031224;28;20415;-76
2021/12/01 10:00:52;;;;;;;2.20;0.80;;;9.30;99.90;;;;;;5031135;28;20184;-76
2021/12/01 10:03:19;;;;;;;2.30;0.70;;;9.30;99.90;;;;;;5031095;28;20422;-76
2021/12/01 10:06:04;;;;;;;2.10;0.80;;;9.40;99.90;;;;;;5030436;28;20907;-76
2021/12/01 10:08:52;;;;;;;2.10;0.77;;;9.50;99.90;;;;;;5030834;28;20465;-76
2021/12/01 10:11:21;;;;;;;2.20;0.73;;;9.50;99.90;;;;;;5030946;28;21017;-76
2021/12/01 10:13:54;;;;;;;2.20;0.70;;;9.60;99.90;;;;;;5031315;28;20423;-78
2021/12/01 10:16:21;;;;;;;3.33;0.80;;;9.60;99.90;;;;;;5030453;28;20418;-75
2021/12/01 10:18:50;;;;;;;2.40;0.70;;;9.70;99.90;;;;;;5030964;28;20929;-75
2021/12/01 10:21:29;;;;;;;1.90;0.60;;;9.70;99.90;;;;;;5030775;28;20481;-75
2021/12/01 10:24:19;;;;;;;1.97;0.70;;;9.70;99.90;;;;;;5031379;28;20487;-76
2021/12/01 10:26:51;;;;;;;1.90;0.60;;;9.80;99.90;;;;;;5020252;28;20484;-76
2021/12/01 10:29:27;;;;;;;2.00;0.70;;;9.80;99.90;;;;;;5030385;28;20426;-77
2021/12/01 10:32:06;;;;;;;2.10;0.70;;;9.80;99.90;;;;;;5030467;28;20798;-76
2021/12/01 10:34:36;;;;;;;2.00;0.70;;;9.90;99.90;;;;;;5030701;28;20422;-75
2021/12/01 10:37:13;;;;;;;2.10;0.70;;;10.00;99.90;;;;;;5030186;28;20464;-75
2021/12/01 10:39:43;;;;;;;1.90;0.70;;;10.00;99.90;;;;;;5030343;28;20414;-75
2021/12/01 10:42:12;;;;;;;2.53;0.80;;;10.10;99.90;;;;;;5030041;28;20439;-75
2021/12/01 10:44:58;;;;;;;1.90;0.60;;;10.20;99.90;;;;;;5030193;28;20455;-74
2021/12/01 10:47:24;;;;;;;2.17;0.90;;;10.20;99.90;;;;;;5030263;28;20422;-75
2021/12/01 10:49:50;;;;;;;2.00;0.70;;;10.20;99.90;;;;;;5030175;28;20554;-74
2021/12/01 10:52:35;;;;;;;2.10;0.80;;;10.30;99.90;;;;;;5029826;28;20469;-74
2021/12/01 10:55:14;;;;;;;2.53;0.80;;;10.30;99.90;;;;;;5029978;28;20184;-73
2021/12/01 10:57:47;;;;;;;2.07;0.70;;;10.30;99.90;;;;;;5030384;28;20487;-76
2021/12/01 11:00:23;;;;;;;2.13;0.80;;;10.30;99.90;;;;;;5029798;28;20427;-74
2021/12/01 11:02:50;;;;;;;2.00;0.70;;;10.30;99.90;;;;;;5030122;28;20443;-74
2021/12/01 11:05:31;;;;;;;2.93;0.80;;;10.30;99.90;;;;;;5029660;28;20466;-75
2021/12/01 11:08:08;;;;;;;2.10;0.80;;;10.40;99.90;;;;;;5030032;28;20514;-75
2021/12/01 11:10:35;;;;;;;2.00;0.73;;;10.50;99.90;;;;;;5029872;28;20423;-75
2021/12/01 11:13:03;;;;;;;2.10;0.80;;;10.60;99.90;;;;;;5029976;28;20430;-75
2021/12/01 11:15:36;;;;;;;2.30;1.23;;;10.70;99.90;;;;;;5029955;28;20430;-76
2021/12/01 11:18:04;;;;;;;2.33;0.80;;;10.60;99.90;;;;;;5029707;28;20443;-75
2021/12/01 11:20:49;;;;;;;2.10;0.80;;;10.60;99.90;;;;;;5029632;28;20427;-75
2021/12/01 11:23:25;;;;;;;2.10;0.70;;;10.70;99.90;;;;;;5029866;28;20427;-75
2021/12/01 11:25:54;;;;;;;2.50;0.90;;;10.60;99.90;;;;;;5029873;28;20996;-75
2021/12/01 11:28:22;;;;;;;2.17;0.70;;;10.60;99.90;;;;;;5031326;28;20418;-76
2021/12/01 11:30:53;;;;;;;2.33;0.80;;;10.60;99.90;;;;;;5029302;28;20421;-75
2021/12/01 11:33:20;;;;;;;2.20;0.70;;;10.70;99.90;;;;;;5029765;28;20419;-75
2021/12/01 11:35:49;;;;;;;2.40;0.90;;;10.70;99.90;;;;;;5029735;28;20575;-75
2021/12/01 11:38:16;;;;;;;2.73;0.83;;;10.70;99.90;;;;;;5029878;28;20946;-76
2021/12/01 11:40:42;;;;;;;2.00;0.80;;;10.70;99.90;;;;;;5025648;28;20459;-74
2021/12/01 11:43:10;;;;;;;2.37;0.80;;;10.80;99.90;;;;;;5042449;28;20454;-76
2021/12/01 11:45:38;;;;;;;2.70;0.90;;;10.80;99.90;;;;;;5029742;28;20544;-75
2021/12/01 11:48:14;;;;;;;2.23;0.83;;;10.70;99.90;;;;;;5031593;28;21060;-75
2021/12/01 11:50:54;;;;;;;2.20;0.80;;;10.70;99.90;;;;;;5030233;28;20429;-75
2021/12/01 11:53:26;;;;;;;2.20;0.80;;;10.60;99.90;;;;;;5021988;28;20447;-76
2021/12/01 11:56:00;;;;;;;2.20;1.00;;;10.40;99.90;;;;;;5029123;28;20436;-75
2021/12/01 11:58:41;;;;;;;2.20;0.80;;;10.40;99.90;;;;;;5033336;28;20763;-76
2021/12/01 12:01:22;;;;;;;2.10;0.80;;;10.30;99.90;;;;;;5033038;28;20852;-75
2021/12/01 12:04:10;;;;;;;3.53;0.90;;;10.30;99.90;;;;;;5033571;28;20426;-75
2021/12/01 12:06:47;;;;;;;2.20;0.90;;;10.20;99.90;;;;;;5032615;28;20985;-74
2021/12/01 12:09:16;;;;;;;3.40;0.80;;;10.20;99.90;;;;;;5033171;28;20419;-75
2021/12/01 12:12:03;;;;;;;2.73;1.10;;;10.10;99.90;;;;;;5033036;28;20442;-75
2021/12/01 12:14:39;;;;;;;2.30;1.07;;;10.10;99.90;;;;;;5020326;28;20554;-74
2021/12/01 12:17:14;;;;;;;2.50;1.20;;;10.10;99.90;;;;;;5032904;28;20465;-75
2021/12/01 12:19:50;;;;;;;2.70;1.33;;;10.10;99.90;;;;;;5032679;28;20470;-75
2021/12/01 12:22:43;;;;;;;3.03;1.40;;;10.00;99.90;;;;;;5032561;28;20524;-76
2021/12/01 12:25:30;;;;;;;2.93;1.87;;;9.80;99.90;;;;;;5032778;28;20544;-76
2021/12/01 12:27:59;;;;;;;4.20;1.93;;;9.70;99.90;;;;;;5032293;28;20422;-75
2021/12/01 12:30:34;;;;;;;5.40;1.70;;;9.60;99.90;;;;;;5033571;28;20422;-76
2021/12/01 12:33:26;;;;;;;5.07;2.23;;;9.60;99.90;;;;;;5032938;28;20496;-75
2021/12/01 12:36:04;;;;;;;3.77;1.80;;;9.40;99.90;;;;;;5032401;28;20429;-75
2021/12/01 12:38:31;;;;;;;4.30;2.03;;;9.30;99.90;;;;;;5032765;28;20513;-75
2021/12/01 12:41:26;;;;;;;7.07;1.93;;;9.20;99.90;;;;;;5032323;28;20906;-75
2021/12/01 12:43:52;;;;;;;7.07;2.23;;;9.10;99.90;;;;;;5015660;28;20433;-76
2021/12/01 12:46:19;;;;;;;4.10;2.30;;;9.10;99.90;;;;;;5032593;28;20423;-75
2021/12/01 12:48:50;;;;;;;3.70;2.10;;;9.00;99.90;;;;;;5032605;28;20648;-75
2021/12/01 12:51:26;;;;;;;3.00;1.90;;;9.10;99.90;;;;;;5031809;28;20472;-75
2021/12/01 12:54:09;;;;;;;3.70;2.23;;;9.10;99.90;;;;;;5032489;28;20430;-75
2021/12/01 12:56:41;;;;;;;4.90;2.30;;;9.20;99.90;;;;;;5032061;28;20408;-75
2021/12/01 12:59:22;;;;;;;6.13;2.40;;;9.30;99.90;;;;;;5031495;28;20518;-75
2021/12/01 13:01:53;;;;;;;4.50;2.20;;;9.30;99.90;;;;;;5032077;28;20579;-75
2021/12/01 13:04:48;;;;;;;5.17;2.50;;;9.30;99.90;;;;;;5032777;28;20463;-75
2021/12/01 13:07:43;;;;;;;3.10;2.00;;;9.30;99.90;;;;;;5031621;28;20419;-75
2021/12/01 13:10:29;;;;;;;4.70;2.40;;;9.40;99.90;;;;;;5031903;28;20911;-74